Impacts METAR Board INFO
IDs:

KPHL - Philadelphia Intl, PA, US

Updated at: 1654 UTC 16 Dec 2017
Potential Impact None Slight Moderate High
Time16/04Z 16/05Z 16/06Z 16/07Z 16/08Z 16/09Z 16/10Z 16/11Z 16/12Z 16/13Z 16/14Z 16/15Z 16/16Z
VIS7 7 7 8 10 10 10 10 10 10 10 10 10
CIG-- -- -- -- -- 60 -- -- -- -- 68 55 --
CoverSCTFEWCLRFEWSCTBKNFEWFEWFEWSCTOVCBKNSCT
FltCatVFRVFRVFRVFRVFRVFRVFRVFRVFRVFRVFRVFRVFR
WX--------------------------
WDir250260260260260260220230230230230240250
WSpd9 9 8 10 11 8 6 9 10 9 13 13 14
WGst-- -- -- -- -- -- -- -- -- -- -- -- --
Raw hourly METARs
KPHL 160354Z 25009KT 7SM FEW015 SCT070 M06/M07 A2998 RMK AO2 SLP152 T10561072 $
KPHL 160454Z 26009KT 7SM FEW060 M04/M07 A2998 RMK AO2 SLP152 T10391067 410171056 $
KPHL 160554Z 26008KT 7SM CLR M06/M08 A3000 RMK AO2 SLP157 T10611083 11033 21061 53004 $
KPHL 160654Z 26010KT 8SM FEW060 M06/M08 A3002 RMK AO2 SLP165 T10561083 $
KPHL 160754Z 26011KT 10SM SCT060 M03/M08 A3004 RMK AO2 SLP172 T10331078 $
KPHL 160854Z 26008KT 10SM BKN060 M04/M08 A3006 RMK AO2 SLP177 T10391078 51020 $
KPHL 160954Z 22006KT 10SM FEW060 M06/M09 A3005 RMK AO2 SLP177 T10611089 $
KPHL 161054Z 23009KT 10SM FEW060 M04/M07 A3008 RMK AO2 SLP184 T10391072 $
KPHL 161154Z 23010KT 10SM FEW060 FEW260 M04/M07 A3010 RMK AO2 SLP191 70016 T10391072 11033 21061 53014 $
KPHL 161254Z 23009KT 10SM FEW060 SCT260 M04/M07 A3012 RMK AO2 SLP198 T10391067 $
KPHL 161354Z 23013KT 10SM BKN068 OVC260 M02/M06 A3013 RMK AO2 SLP201 T10221056 $
KPHL 161454Z 24013KT 10SM BKN055 BKN120 00/M04 A3013 RMK AO2 SLP201 T00001039 51009 $
KPHL 161554Z 25014KT 10SM SCT055 SCT120 01/M04 A3012 RMK AO2 SLP197 T00111039 $